createdAt,value
2022-10-23T00:00:13.770Z,83.60
2022-10-23T00:01:14.139Z,83.10
2022-10-23T00:02:26.531Z,83.90
2022-10-23T00:03:13.944Z,83.70
2022-10-23T00:04:13.282Z,82.50
2022-10-23T00:05:13.310Z,82.60
2022-10-23T00:06:13.582Z,83.70
2022-10-23T00:07:49.457Z,84.50
2022-10-23T00:08:13.182Z,85.00
2022-10-23T00:09:13.388Z,84.50
2022-10-23T00:10:34.148Z,84.50
2022-10-23T00:11:13.227Z,85.00
2022-10-23T00:12:13.528Z,85.40
2022-10-23T00:13:13.632Z,85.90
2022-10-23T00:14:13.826Z,86.60
2022-10-23T00:15:14.127Z,86.20
2022-10-23T00:16:13.196Z,84.70
2022-10-23T00:17:13.253Z,84.10
2022-10-23T00:18:13.224Z,84.70
2022-10-23T00:19:13.191Z,85.00
2022-10-23T00:20:13.123Z,85.00
2022-10-23T00:21:13.337Z,85.20
2022-10-23T00:22:13.377Z,85.00
2022-10-23T00:23:13.474Z,84.80
2022-10-23T00:24:13.639Z,85.20
2022-10-23T00:25:13.613Z,85.90
2022-10-23T00:26:13.416Z,87.10
2022-10-23T00:27:13.346Z,88.00
2022-10-23T00:28:13.371Z,88.40
2022-10-23T00:29:13.538Z,88.30
2022-10-23T00:30:13.635Z,88.70
2022-10-23T00:31:13.609Z,89.20
2022-10-23T00:32:13.437Z,89.10
2022-10-23T00:33:13.331Z,88.80
2022-10-23T00:34:13.786Z,89.10
2022-10-23T00:35:14.080Z,88.90
2022-10-23T00:36:13.157Z,89.00
2022-10-23T00:37:12.989Z,89.80
2022-10-23T00:38:14.178Z,90.30
2022-10-23T00:39:13.383Z,90.60
2022-10-23T00:40:13.291Z,90.60
2022-10-23T00:41:13.217Z,90.70
2022-10-23T00:42:13.098Z,90.60
2022-10-23T00:43:13.461Z,90.60
2022-10-23T00:44:13.804Z,90.40
2022-10-23T00:45:13.784Z,90.70
2022-10-23T00:46:13.895Z,90.20
2022-10-23T00:47:12.921Z,90.90
2022-10-23T00:48:12.946Z,90.60
2022-10-23T00:50:13.959Z,91.00
2022-10-23T00:51:12.886Z,90.60
2022-10-23T00:52:12.774Z,91.50
2022-10-23T00:53:13.868Z,91.80
2022-10-23T00:54:24.816Z,91.70
2022-10-23T00:55:13.105Z,91.60
2022-10-23T00:56:13.151Z,91.50
2022-10-23T00:57:13.276Z,90.90
2022-10-23T00:58:13.330Z,91.00
2022-10-23T00:59:13.761Z,90.50
2022-10-23T01:00:13.794Z,90.50
2022-10-23T01:01:14.019Z,91.30
2022-10-23T01:02:13.188Z,91.80
2022-10-23T01:03:13.323Z,91.90
2022-10-23T01:04:13.463Z,91.80
2022-10-23T01:05:13.594Z,91.60
2022-10-23T01:06:13.835Z,91.30
2022-10-23T01:07:13.672Z,92.20
2022-10-23T01:08:13.573Z,91.70
2022-10-23T01:09:13.561Z,91.80
2022-10-23T01:10:13.761Z,91.80
2022-10-23T01:11:13.647Z,91.50
2022-10-23T01:12:13.602Z,91.50
2022-10-23T01:13:13.785Z,91.30
2022-10-23T01:14:14.071Z,91.50
2022-10-23T01:15:12.926Z,91.70
2022-10-23T01:16:12.807Z,91.80
2022-10-23T01:17:14.072Z,91.60
2022-10-23T01:18:13.165Z,91.80
2022-10-23T01:19:13.061Z,92.00
2022-10-23T01:20:12.973Z,91.50
2022-10-23T01:21:13.015Z,91.80
2022-10-23T01:22:13.275Z,92.20
2022-10-23T01:23:13.359Z,91.90
2022-10-23T01:24:13.666Z,92.20
2022-10-23T01:25:13.569Z,92.20
2022-10-23T01:26:13.482Z,92.10
2022-10-23T01:27:13.347Z,92.10
2022-10-23T01:28:13.405Z,92.10
2022-10-23T01:29:13.306Z,92.60
2022-10-23T01:30:13.181Z,92.20
2022-10-23T01:31:13.229Z,91.70
2022-10-23T01:32:13.309Z,91.50
2022-10-23T01:33:13.440Z,91.40
2022-10-23T01:34:13.439Z,91.50
2022-10-23T01:35:13.560Z,91.80
2022-10-23T01:36:13.750Z,91.50
2022-10-23T01:37:13.861Z,91.40
2022-10-23T01:38:13.735Z,91.80
2022-10-23T01:39:14.043Z,92.60
2022-10-23T01:40:12.843Z,93.10
2022-10-23T01:41:13.905Z,93.20
2022-10-23T01:42:12.788Z,93.20
2022-10-23T01:43:13.690Z,93.70
2022-10-23T01:44:13.734Z,93.50
2022-10-23T01:45:13.765Z,93.20
2022-10-23T01:46:13.852Z,92.80
2022-10-23T01:47:14.408Z,92.20
2022-10-23T01:48:13.850Z,91.60
2022-10-23T01:49:14.059Z,91.30
2022-10-23T01:50:13.108Z,90.90
2022-10-23T01:51:14.496Z,91.90
2022-10-23T01:52:13.963Z,91.40
2022-10-23T01:53:13.004Z,91.70
2022-10-23T01:54:12.896Z,91.20
2022-10-23T01:55:12.816Z,90.70
2022-10-23T01:56:14.000Z,90.10
2022-10-23T01:57:12.882Z,89.60
2022-10-23T01:58:13.990Z,90.30
2022-10-23T01:59:14.139Z,90.10
2022-10-23T02:00:13.317Z,90.40
2022-10-23T02:01:18.577Z,90.20
2022-10-23T02:02:13.723Z,89.60
2022-10-23T02:03:13.701Z,90.70
2022-10-23T02:04:13.967Z,90.00
2022-10-23T02:05:13.014Z,89.50
2022-10-23T02:06:12.932Z,90.10
2022-10-23T02:07:13.141Z,90.00
2022-10-23T02:08:13.095Z,90.00
2022-10-23T02:09:13.053Z,89.60
2022-10-23T02:10:13.280Z,90.10
2022-10-23T02:11:13.180Z,90.50
2022-10-23T02:12:13.148Z,91.50
2022-10-23T02:13:13.386Z,92.40
2022-10-23T02:14:13.662Z,91.90
2022-10-23T02:15:13.794Z,92.20
2022-10-23T02:16:14.012Z,92.00
2022-10-23T02:17:13.080Z,91.10
2022-10-23T02:18:13.143Z,90.60
2022-10-23T02:19:13.268Z,90.60
2022-10-23T02:20:13.339Z,90.70
2022-10-23T02:21:13.357Z,90.50
2022-10-23T02:22:13.248Z,89.90
2022-10-23T02:23:13.157Z,89.50
2022-10-23T02:24:13.226Z,89.70
2022-10-23T02:25:13.134Z,90.40
2022-10-23T02:26:13.716Z,90.10
2022-10-23T02:27:13.934Z,89.70
2022-10-23T02:28:12.906Z,89.10
2022-10-23T02:29:12.743Z,89.80
2022-10-23T02:30:13.506Z,90.70
2022-10-23T02:31:13.412Z,90.70
2022-10-23T02:32:13.428Z,90.80
2022-10-23T02:33:13.204Z,90.80
2022-10-23T02:34:13.106Z,90.50
2022-10-23T02:35:12.929Z,90.20
2022-10-23T02:36:12.927Z,90.20
2022-10-23T02:37:13.024Z,91.10
2022-10-23T02:38:13.261Z,90.60
2022-10-23T02:39:13.271Z,89.80
2022-10-23T02:40:13.149Z,89.20
2022-10-23T02:41:13.332Z,89.30
2022-10-23T02:42:13.213Z,89.50
2022-10-23T02:43:13.534Z,89.50
2022-10-23T02:44:13.338Z,88.70
2022-10-23T02:45:13.277Z,89.10
2022-10-23T02:46:13.385Z,90.30
2022-10-23T02:47:13.274Z,89.70
2022-10-23T02:48:13.302Z,88.90
2022-10-23T02:49:13.601Z,88.90
2022-10-23T02:50:13.461Z,89.10
2022-10-23T02:51:13.289Z,89.40
2022-10-23T02:52:13.268Z,89.40
2022-10-23T02:53:13.289Z,89.30
2022-10-23T02:54:13.419Z,89.90
2022-10-23T02:55:13.352Z,89.20
2022-10-23T02:56:13.280Z,89.20
2022-10-23T02:57:13.523Z,88.60
2022-10-23T02:58:13.432Z,88.10
2022-10-23T02:59:13.526Z,87.90
2022-10-23T03:00:13.481Z,87.90
2022-10-23T03:01:13.480Z,88.60
2022-10-23T03:02:13.520Z,88.80
2022-10-23T03:03:13.675Z,88.80
2022-10-23T03:04:13.617Z,88.30
2022-10-23T03:05:13.797Z,88.40
2022-10-23T03:06:14.038Z,87.70
2022-10-23T03:07:13.458Z,87.90
2022-10-23T03:08:13.313Z,87.90
2022-10-23T03:09:13.153Z,88.40
2022-10-23T03:10:13.050Z,88.80
2022-10-23T03:11:13.319Z,89.20
2022-10-23T03:12:13.140Z,89.00
2022-10-23T03:13:13.071Z,89.00
2022-10-23T03:14:13.111Z,89.20
2022-10-23T03:15:13.038Z,89.80
2022-10-23T03:16:12.944Z,89.30
2022-10-23T03:17:12.872Z,89.10
2022-10-23T03:18:13.958Z,89.30
2022-10-23T03:19:12.915Z,89.10
2022-10-23T03:20:12.740Z,89.00
2022-10-23T03:21:13.555Z,88.90
2022-10-23T03:22:13.443Z,88.90
2022-10-23T03:23:13.475Z,88.80
2022-10-23T03:24:13.599Z,88.70
2022-10-23T03:25:13.624Z,89.00
2022-10-23T03:26:13.935Z,88.70
2022-10-23T03:27:12.874Z,88.00
2022-10-23T03:28:14.258Z,88.10
2022-10-23T03:29:13.184Z,88.00
2022-10-23T03:30:13.198Z,88.10
2022-10-23T03:31:13.120Z,87.50
2022-10-23T03:32:13.182Z,86.80
2022-10-23T03:33:13.202Z,86.90
2022-10-23T03:34:13.113Z,86.80
2022-10-23T03:35:13.012Z,86.40
2022-10-23T03:36:12.983Z,86.80
2022-10-23T03:37:12.928Z,87.90
2022-10-23T03:38:12.856Z,88.60
2022-10-23T03:39:13.741Z,88.00
2022-10-23T03:40:13.661Z,87.50
2022-10-23T03:41:13.563Z,87.40
2022-10-23T03:42:18.473Z,87.60
2022-10-23T03:43:13.434Z,88.10
2022-10-23T03:44:13.399Z,88.00
2022-10-23T03:45:13.466Z,87.60
2022-10-23T03:46:13.357Z,88.00
2022-10-23T03:47:13.585Z,88.70
2022-10-23T03:48:13.544Z,88.40
2022-10-23T03:49:13.448Z,88.50
2022-10-23T03:50:13.326Z,88.70
2022-10-23T03:51:13.270Z,88.70
2022-10-23T03:52:13.236Z,88.40
2022-10-23T03:53:13.372Z,88.30
2022-10-23T03:54:13.302Z,88.50
2022-10-23T03:55:13.304Z,88.30
2022-10-23T03:56:13.224Z,87.90
2022-10-23T03:57:13.584Z,88.10
2022-10-23T03:58:13.557Z,88.70
2022-10-23T03:59:13.718Z,88.90
2022-10-23T04:00:13.647Z,89.70
2022-10-23T04:01:13.675Z,89.70
2022-10-23T04:02:14.093Z,89.60
2022-10-23T04:03:13.106Z,89.60
2022-10-23T04:04:13.038Z,89.10
2022-10-23T04:05:12.882Z,88.90
2022-10-23T04:06:14.084Z,88.60
2022-10-23T04:07:13.304Z,88.40
2022-10-23T04:08:17.524Z,88.30
2022-10-23T04:10:13.481Z,88.60
2022-10-23T04:11:13.818Z,88.90
2022-10-23T04:12:13.991Z,89.30
2022-10-23T04:13:12.957Z,89.20
2022-10-23T04:14:12.959Z,88.90
2022-10-23T04:15:12.881Z,90.40
2022-10-23T04:16:12.995Z,90.30
2022-10-23T04:17:13.395Z,89.60
2022-10-23T04:18:13.511Z,88.80
2022-10-23T04:19:13.389Z,89.30
2022-10-23T04:20:13.571Z,88.20
2022-10-23T04:21:13.479Z,87.90
2022-10-23T04:22:13.355Z,87.90
2022-10-23T04:23:13.501Z,87.20
2022-10-23T04:24:19.699Z,86.60
2022-10-23T04:25:13.733Z,86.10
2022-10-23T04:26:14.139Z,85.50
2022-10-23T04:27:13.281Z,85.50
2022-10-23T04:28:13.061Z,85.80
2022-10-23T04:29:13.131Z,86.40
2022-10-23T04:30:13.414Z,86.20
2022-10-23T04:31:13.306Z,86.50
2022-10-23T04:32:13.263Z,84.80
2022-10-23T04:33:13.179Z,85.60
2022-10-23T04:34:13.295Z,85.50
2022-10-23T04:35:13.173Z,85.40
2022-10-23T04:36:12.997Z,85.60
2022-10-23T04:37:13.126Z,85.40
2022-10-23T04:38:13.213Z,85.10
2022-10-23T04:39:13.362Z,85.20
2022-10-23T04:40:13.472Z,84.80
2022-10-23T04:41:13.485Z,84.50
2022-10-23T04:42:14.283Z,84.40
2022-10-23T04:43:13.293Z,84.80
2022-10-23T04:44:14.302Z,85.20
2022-10-23T04:45:13.253Z,85.10
2022-10-23T04:46:13.233Z,85.70
2022-10-23T04:47:13.138Z,86.30
2022-10-23T04:48:13.451Z,86.60
2022-10-23T04:49:13.346Z,86.60
2022-10-23T04:50:13.213Z,86.60
2022-10-23T04:51:13.496Z,85.90
2022-10-23T04:52:13.871Z,86.70
2022-10-23T04:53:13.934Z,86.80
2022-10-23T04:54:12.993Z,86.40
2022-10-23T04:55:12.866Z,86.60
2022-10-23T04:56:14.057Z,86.10
2022-10-23T04:57:13.245Z,85.70
2022-10-23T04:58:13.623Z,85.50
2022-10-23T04:59:13.496Z,85.70
2022-10-23T05:00:13.429Z,86.50
2022-10-23T05:01:13.380Z,85.80
2022-10-23T05:02:13.325Z,85.40
2022-10-23T05:03:13.532Z,85.50
2022-10-23T05:04:13.438Z,85.50
2022-10-23T05:05:13.955Z,85.10
2022-10-23T05:06:12.861Z,85.00
2022-10-23T05:07:13.883Z,85.40
2022-10-23T05:08:15.641Z,85.50
2022-10-23T05:09:12.919Z,85.10
2022-10-23T05:10:12.894Z,84.90
2022-10-23T05:11:13.803Z,84.90
2022-10-23T05:12:13.789Z,85.20
2022-10-23T05:13:14.070Z,85.10
2022-10-23T05:14:13.158Z,85.30
2022-10-23T05:15:13.498Z,85.70
2022-10-23T05:16:13.492Z,85.70
2022-10-23T05:17:13.592Z,85.20
2022-10-23T05:18:13.485Z,84.70
2022-10-23T05:19:13.443Z,84.20
2022-10-23T05:20:13.325Z,83.90
2022-10-23T05:21:13.279Z,83.80
2022-10-23T05:22:13.153Z,84.00
2022-10-23T05:23:12.995Z,84.20
2022-10-23T05:24:13.096Z,84.60
2022-10-23T05:25:13.355Z,84.60
2022-10-23T05:26:13.203Z,84.00
2022-10-23T05:27:13.210Z,83.70
2022-10-23T05:28:13.358Z,84.50
2022-10-23T05:29:13.401Z,85.10
2022-10-23T05:30:13.186Z,84.40
2022-10-23T05:31:13.037Z,83.40
2022-10-23T05:32:13.229Z,83.30
2022-10-23T05:33:13.388Z,83.50
2022-10-23T05:34:13.536Z,83.50
2022-10-23T05:35:13.519Z,83.10
2022-10-23T05:36:13.496Z,83.30
2022-10-23T05:37:13.483Z,83.30
2022-10-23T05:38:13.533Z,83.70
2022-10-23T05:39:13.522Z,84.80
2022-10-23T05:40:14.020Z,85.70
2022-10-23T05:41:13.412Z,85.90
2022-10-23T05:42:13.711Z,85.80
2022-10-23T05:43:13.700Z,85.90
2022-10-23T05:44:13.738Z,85.80
2022-10-23T05:45:13.611Z,85.00
2022-10-23T05:46:13.619Z,84.90
2022-10-23T05:47:13.549Z,86.10
2022-10-23T05:48:29.874Z,86.70
2022-10-23T05:49:12.735Z,87.70
2022-10-23T05:50:13.840Z,87.50
2022-10-23T05:51:14.098Z,87.10
2022-10-23T05:52:13.118Z,86.40
2022-10-23T05:53:13.443Z,86.10
2022-10-23T05:54:13.690Z,86.40
2022-10-23T05:55:13.597Z,86.20
2022-10-23T05:56:13.809Z,86.30
2022-10-23T05:57:13.990Z,87.00
2022-10-23T05:58:13.147Z,86.80
2022-10-23T05:59:13.284Z,87.00
2022-10-23T06:00:13.354Z,87.00
2022-10-23T06:01:13.502Z,86.90
2022-10-23T06:02:13.618Z,87.90
2022-10-23T06:03:13.717Z,87.50
2022-10-23T06:04:13.575Z,87.30
2022-10-23T06:05:14.353Z,87.80
2022-10-23T06:06:14.016Z,89.00
2022-10-23T06:07:12.889Z,89.10
2022-10-23T06:08:13.857Z,88.70
2022-10-23T06:09:14.080Z,88.30
2022-10-23T06:10:13.145Z,88.50
2022-10-23T06:11:13.173Z,88.70
2022-10-23T06:12:13.092Z,88.90
2022-10-23T06:13:13.069Z,89.30
2022-10-23T06:14:13.362Z,89.90
2022-10-23T06:15:13.345Z,90.10
2022-10-23T06:16:14.421Z,89.20
2022-10-23T06:17:13.438Z,88.80
2022-10-23T06:18:13.896Z,88.20
2022-10-23T06:19:12.729Z,88.70
2022-10-23T06:20:13.552Z,88.50
2022-10-23T06:21:13.801Z,89.00
2022-10-23T06:22:13.904Z,88.90
2022-10-23T06:23:12.994Z,89.40
2022-10-23T06:24:12.907Z,89.10
2022-10-23T06:25:12.747Z,89.10
2022-10-23T06:26:13.644Z,88.70
2022-10-23T06:27:13.682Z,89.20
2022-10-23T06:28:16.992Z,89.40
2022-10-23T06:29:13.815Z,90.20
2022-10-23T06:30:13.620Z,89.50
2022-10-23T06:31:13.450Z,89.40
2022-10-23T06:32:13.419Z,89.20
2022-10-23T06:33:13.308Z,89.70
2022-10-23T06:34:13.318Z,89.30
2022-10-23T06:35:13.360Z,88.90
2022-10-23T06:36:13.253Z,88.70
2022-10-23T06:37:13.476Z,88.60
2022-10-23T06:38:13.303Z,88.40
2022-10-23T06:39:13.480Z,88.10
2022-10-23T06:40:13.582Z,87.50
2022-10-23T06:41:13.700Z,87.30
2022-10-23T06:42:13.575Z,87.10
2022-10-23T06:43:13.479Z,86.50
2022-10-23T06:44:13.484Z,85.80
2022-10-23T06:45:13.458Z,85.00
2022-10-23T06:46:13.420Z,84.90
2022-10-23T06:47:13.353Z,84.80
2022-10-23T06:48:13.194Z,84.40
2022-10-23T06:49:13.012Z,83.90
2022-10-23T06:50:15.434Z,83.60
2022-10-23T06:51:13.720Z,83.20
2022-10-23T06:52:18.432Z,83.30
2022-10-23T06:53:13.909Z,83.70
2022-10-23T06:54:59.223Z,83.30
2022-10-23T06:55:13.349Z,82.50
2022-10-23T06:56:13.359Z,82.20
2022-10-23T06:57:13.453Z,82.00
2022-10-23T06:58:13.583Z,81.40
2022-10-23T06:59:13.622Z,80.80
2022-10-23T07:00:13.612Z,80.70
2022-10-23T07:01:14.272Z,80.20
2022-10-23T07:02:23.893Z,80.10
2022-10-23T07:03:13.070Z,79.80
2022-10-23T07:04:13.184Z,80.40
2022-10-23T07:05:13.899Z,80.70
2022-10-23T07:06:13.065Z,80.80
2022-10-23T07:07:12.891Z,80.50
2022-10-23T07:08:13.087Z,79.70
2022-10-23T07:09:13.216Z,80.80
2022-10-23T07:11:13.250Z,80.00
2022-10-23T07:12:14.320Z,79.20
2022-10-23T07:13:13.425Z,78.40
2022-10-23T07:14:13.299Z,77.50
2022-10-23T07:15:13.422Z,77.10
2022-10-23T07:16:13.573Z,77.30
2022-10-23T07:17:13.964Z,77.40
2022-10-23T07:18:12.852Z,77.50
2022-10-23T07:19:13.798Z,76.70
2022-10-23T07:20:13.894Z,76.50
2022-10-23T07:21:13.116Z,77.20
2022-10-23T07:22:15.746Z,77.70
2022-10-23T07:23:15.257Z,77.10
2022-10-23T07:24:13.308Z,76.60
2022-10-23T07:25:13.538Z,77.00
2022-10-23T07:26:13.436Z,76.50
2022-10-23T07:27:13.405Z,76.80
2022-10-23T07:28:13.637Z,76.90
2022-10-23T07:29:13.666Z,76.80
2022-10-23T07:30:13.849Z,76.40
2022-10-23T07:31:13.923Z,75.80
2022-10-23T07:32:12.859Z,76.00
2022-10-23T07:33:13.875Z,76.10
2022-10-23T07:34:14.056Z,76.50
2022-10-23T07:36:13.159Z,75.80
2022-10-23T07:37:13.349Z,76.20
2022-10-23T07:38:13.454Z,75.20
2022-10-23T07:39:13.407Z,75.10
2022-10-23T07:40:13.341Z,74.80
2022-10-23T07:41:13.425Z,74.80
2022-10-23T07:42:13.641Z,75.40
2022-10-23T07:43:13.647Z,75.10
2022-10-23T07:44:13.755Z,74.90
2022-10-23T07:45:13.636Z,75.10
2022-10-23T07:46:13.662Z,75.50
2022-10-23T07:47:13.593Z,75.10
2022-10-23T07:48:13.427Z,76.20
2022-10-23T07:49:13.744Z,75.40
2022-10-23T07:50:13.630Z,75.30
2022-10-23T07:51:13.513Z,75.70
2022-10-23T07:52:13.390Z,76.60
2022-10-23T07:53:13.328Z,76.70
2022-10-23T07:54:13.166Z,76.40
2022-10-23T07:55:13.341Z,75.90
2022-10-23T07:56:13.404Z,75.30
2022-10-23T07:57:13.560Z,74.10
2022-10-23T07:58:13.605Z,74.00
2022-10-23T07:59:13.521Z,74.40
2022-10-23T08:00:13.498Z,74.30
2022-10-23T08:01:13.491Z,73.90
2022-10-23T08:02:13.556Z,75.00
2022-10-23T08:03:13.548Z,74.50
2022-10-23T08:04:13.471Z,73.30
2022-10-23T08:05:13.502Z,73.20
2022-10-23T08:06:13.412Z,73.40
2022-10-23T08:07:13.508Z,73.70
2022-10-23T08:08:13.424Z,73.40
2022-10-23T08:09:13.540Z,73.40
2022-10-23T08:10:13.783Z,73.40
2022-10-23T08:11:14.182Z,73.00
2022-10-23T08:12:13.054Z,72.60
2022-10-23T08:13:13.552Z,72.20
2022-10-23T08:14:13.790Z,72.70
2022-10-23T08:15:13.700Z,72.40
2022-10-23T08:16:13.969Z,73.00
2022-10-23T08:17:12.890Z,72.30
2022-10-23T08:18:12.932Z,72.30
2022-10-23T08:19:12.784Z,72.60
2022-10-23T08:20:13.867Z,72.30
2022-10-23T08:21:14.042Z,72.60
2022-10-23T08:22:13.239Z,73.30
2022-10-23T08:23:13.535Z,73.30
2022-10-23T08:24:13.521Z,73.00
2022-10-23T08:25:13.452Z,72.40
2022-10-23T08:26:13.366Z,71.70
2022-10-23T08:27:13.469Z,71.60
2022-10-23T08:28:13.466Z,71.10
2022-10-23T08:29:18.842Z,70.50
2022-10-23T08:31:38.880Z,70.00
2022-10-23T08:32:14.224Z,70.00
2022-10-23T08:33:13.516Z,69.40
2022-10-23T08:34:13.911Z,70.30
2022-10-23T08:35:13.167Z,70.40
2022-10-23T08:36:13.382Z,70.00
2022-10-23T08:37:13.494Z,69.70
2022-10-23T08:38:14.027Z,69.20
2022-10-23T08:39:13.337Z,69.00
2022-10-23T08:40:13.557Z,68.50
2022-10-23T08:41:13.501Z,68.10
2022-10-23T08:42:13.897Z,67.10
2022-10-23T08:43:13.148Z,66.80
2022-10-23T08:44:13.243Z,67.80
2022-10-23T08:45:13.345Z,67.90
2022-10-23T08:46:13.596Z,69.30
2022-10-23T08:47:13.573Z,68.60
2022-10-23T08:48:13.464Z,68.50
2022-10-23T08:49:13.403Z,69.90
2022-10-23T08:50:13.414Z,67.80
2022-10-23T08:51:13.695Z,67.80
2022-10-23T08:52:14.200Z,68.60
2022-10-23T08:53:13.773Z,67.70
2022-10-23T08:54:13.877Z,66.40
2022-10-23T08:55:13.774Z,66.40
2022-10-23T08:56:13.759Z,65.10
2022-10-23T08:57:14.037Z,66.40
2022-10-23T08:58:13.529Z,64.80
2022-10-23T08:59:13.448Z,64.80
2022-10-23T09:00:13.293Z,64.60
2022-10-23T09:01:13.426Z,63.70
2022-10-23T09:02:13.772Z,64.00
2022-10-23T09:03:13.882Z,63.60
2022-10-23T09:04:14.094Z,63.80
2022-10-23T09:05:13.234Z,63.70
2022-10-23T09:06:13.545Z,62.30
2022-10-23T09:07:13.479Z,62.40
2022-10-23T09:08:13.388Z,64.30
2022-10-23T09:09:13.561Z,62.50
2022-10-23T09:10:13.638Z,62.30
2022-10-23T09:11:13.871Z,62.60
2022-10-23T09:12:13.902Z,61.50
2022-10-23T09:13:13.196Z,62.00
2022-10-23T09:14:13.517Z,62.30
2022-10-23T09:15:13.435Z,61.50
2022-10-23T09:16:13.499Z,61.10
2022-10-23T09:18:13.877Z,61.40
2022-10-23T09:19:13.654Z,62.20
2022-10-23T09:20:13.556Z,62.80
2022-10-23T09:21:13.496Z,62.20
2022-10-23T09:22:13.732Z,61.20
2022-10-23T09:23:13.557Z,60.30
2022-10-23T09:24:13.424Z,59.20
2022-10-23T09:25:13.606Z,58.60
2022-10-23T09:26:13.881Z,60.80
2022-10-23T09:27:13.869Z,60.60
2022-10-23T09:28:14.095Z,59.80
2022-10-23T09:29:12.990Z,59.90
2022-10-23T09:30:12.890Z,58.20
2022-10-23T09:31:13.677Z,60.50
2022-10-23T09:32:13.567Z,58.90
2022-10-23T09:33:13.683Z,57.70
2022-10-23T09:34:13.556Z,58.40
2022-10-23T09:35:13.474Z,57.20
2022-10-23T09:36:13.368Z,57.20
2022-10-23T09:37:13.410Z,57.30
2022-10-23T09:38:13.524Z,55.60
2022-10-23T09:39:14.225Z,54.90
2022-10-23T09:40:13.291Z,55.30
2022-10-23T09:41:13.429Z,55.00
2022-10-23T09:42:13.483Z,58.10
2022-10-23T09:43:13.778Z,59.00
2022-10-23T09:44:14.081Z,60.10
2022-10-23T09:45:13.087Z,60.00
2022-10-23T09:46:13.118Z,61.30
2022-10-23T09:47:13.078Z,61.00
2022-10-23T09:48:12.987Z,58.90
2022-10-23T09:49:12.844Z,59.80
2022-10-23T09:50:13.744Z,60.00
2022-10-23T09:51:14.036Z,60.30
2022-10-23T09:52:12.933Z,59.50
2022-10-23T09:53:13.236Z,61.00
2022-10-23T09:54:13.240Z,60.80
2022-10-23T09:55:13.264Z,59.80
2022-10-23T09:56:13.730Z,59.10
2022-10-23T09:57:13.743Z,59.80
2022-10-23T09:58:14.087Z,59.80
2022-10-23T09:59:13.417Z,59.30
2022-10-23T10:00:13.263Z,62.50
2022-10-23T10:01:13.421Z,61.90
2022-10-23T10:02:13.786Z,61.00
2022-10-23T10:03:12.777Z,60.20
2022-10-23T10:04:13.670Z,60.20
2022-10-23T10:05:14.399Z,60.60
2022-10-23T10:06:13.275Z,60.10
2022-10-23T10:07:13.546Z,59.40
2022-10-23T10:08:13.498Z,60.20
2022-10-23T10:09:13.314Z,59.90
2022-10-23T10:10:13.206Z,60.50
2022-10-23T10:11:13.146Z,59.70
2022-10-23T10:12:13.400Z,59.90
2022-10-23T10:13:15.066Z,58.30
2022-10-23T10:14:13.221Z,58.50
2022-10-23T10:15:13.263Z,58.20
2022-10-23T10:16:13.112Z,58.30
2022-10-23T10:17:13.122Z,57.70
2022-10-23T10:18:13.725Z,57.90
2022-10-23T10:19:13.833Z,58.00
2022-10-23T10:20:13.885Z,59.00
2022-10-23T10:21:14.074Z,57.70
2022-10-23T10:22:12.936Z,57.30
2022-10-23T10:23:12.944Z,58.00
2022-10-23T10:24:12.769Z,57.60
2022-10-23T10:25:14.195Z,57.20
2022-10-23T10:26:14.887Z,57.40
2022-10-23T10:27:13.108Z,55.50
2022-10-23T10:28:12.981Z,56.70
2022-10-23T10:29:12.965Z,57.10
2022-10-23T10:30:13.142Z,55.90
2022-10-23T10:31:13.325Z,57.30
2022-10-23T10:32:13.161Z,57.30
2022-10-23T10:33:13.428Z,57.20
2022-10-23T10:34:13.266Z,56.70
2022-10-23T10:35:13.173Z,55.70
2022-10-23T10:36:13.136Z,55.80
2022-10-23T10:37:13.060Z,56.70
2022-10-23T10:38:13.202Z,56.80
2022-10-23T10:39:13.495Z,56.70
2022-10-23T10:40:13.348Z,56.50
2022-10-23T10:41:13.376Z,56.70
2022-10-23T10:42:13.244Z,56.80
2022-10-23T10:43:13.580Z,57.20
2022-10-23T10:44:13.614Z,56.80
2022-10-23T10:45:13.633Z,57.00
2022-10-23T10:46:13.598Z,57.80
2022-10-23T10:47:15.961Z,57.40
2022-10-23T10:48:13.841Z,57.10
2022-10-23T10:49:14.298Z,56.50
2022-10-23T10:50:13.265Z,57.30
2022-10-23T10:51:13.784Z,57.50
2022-10-23T10:52:14.049Z,56.50
2022-10-23T10:53:13.382Z,56.80
2022-10-23T10:54:13.600Z,55.90
2022-10-23T10:55:13.755Z,56.80
2022-10-23T10:56:13.923Z,57.00
2022-10-23T10:57:12.785Z,56.90
2022-10-23T10:58:13.798Z,55.70
2022-10-23T10:59:13.841Z,55.80
2022-10-23T11:00:13.955Z,56.50
2022-10-23T11:01:12.927Z,56.70
2022-10-23T11:02:13.133Z,56.60
2022-10-23T11:03:13.178Z,56.80
2022-10-23T11:04:13.462Z,58.00
2022-10-23T11:05:13.322Z,58.70
2022-10-23T11:06:13.247Z,58.30
2022-10-23T11:07:13.271Z,58.10
2022-10-23T11:08:13.209Z,57.40
2022-10-23T11:09:20.336Z,56.50
2022-10-23T11:10:12.911Z,56.70
2022-10-23T11:11:12.920Z,57.80
2022-10-23T11:12:13.209Z,58.70
2022-10-23T11:13:13.201Z,56.00
2022-10-23T11:14:13.158Z,56.70
2022-10-23T11:15:13.161Z,57.60
2022-10-23T11:16:13.022Z,56.70
2022-10-23T11:17:13.139Z,56.70
2022-10-23T11:18:13.026Z,56.10
2022-10-23T11:19:14.169Z,56.80
2022-10-23T11:20:13.601Z,56.80
2022-10-23T11:21:13.507Z,57.30
2022-10-23T11:22:13.525Z,57.40
2022-10-23T11:23:13.450Z,56.80
2022-10-23T11:24:13.276Z,57.60
2022-10-23T11:25:13.155Z,57.40
2022-10-23T11:26:16.209Z,57.60
2022-10-23T11:27:12.751Z,56.80
2022-10-23T11:28:13.777Z,57.10
2022-10-23T11:29:12.859Z,56.70
2022-10-23T11:30:13.964Z,56.20
2022-10-23T11:31:13.117Z,55.80
2022-10-23T11:32:13.248Z,55.10
2022-10-23T11:33:13.520Z,55.40
2022-10-23T11:34:15.010Z,55.20
2022-10-23T11:35:13.159Z,55.10
2022-10-23T11:36:13.190Z,56.00
2022-10-23T11:37:13.360Z,57.50
2022-10-23T11:38:13.496Z,56.70
2022-10-23T11:39:13.479Z,55.10
2022-10-23T11:40:13.616Z,55.10
2022-10-23T11:41:13.685Z,56.70
2022-10-23T11:42:13.797Z,55.10
2022-10-23T11:43:13.885Z,54.80
2022-10-23T11:44:13.791Z,54.60
2022-10-23T11:45:13.746Z,55.40
2022-10-23T11:46:13.647Z,54.70
2022-10-23T11:47:13.482Z,55.70
2022-10-23T11:48:13.606Z,55.30
2022-10-23T11:49:13.500Z,55.80
2022-10-23T11:50:13.593Z,55.20
2022-10-23T11:51:13.552Z,55.60
2022-10-23T11:52:13.774Z,56.90
2022-10-23T11:53:15.105Z,57.70
2022-10-23T11:54:12.970Z,58.00
2022-10-23T11:55:13.031Z,58.60
2022-10-23T11:56:13.040Z,57.90
2022-10-23T11:57:12.990Z,58.70
2022-10-23T11:58:12.895Z,57.30
2022-10-23T11:59:14.098Z,56.10
2022-10-23T12:00:12.990Z,57.60
2022-10-23T12:01:12.964Z,58.10
2022-10-23T12:02:13.529Z,57.50
2022-10-23T12:03:13.346Z,57.60
2022-10-23T12:04:13.187Z,58.90
2022-10-23T12:05:13.104Z,59.80
2022-10-23T12:06:13.179Z,58.50
2022-10-23T12:07:13.287Z,57.60
2022-10-23T12:08:13.315Z,58.10
2022-10-23T12:09:13.326Z,57.30
2022-10-23T12:10:13.440Z,56.00
2022-10-23T12:11:13.389Z,55.10
2022-10-23T12:12:13.578Z,54.80
2022-10-23T12:13:13.471Z,57.50
2022-10-23T12:15:13.683Z,56.90
2022-10-23T12:16:13.729Z,56.80
2022-10-23T12:17:13.789Z,56.50
2022-10-23T12:18:13.620Z,57.50
2022-10-23T12:19:13.619Z,57.40
2022-10-23T12:20:13.653Z,58.00
2022-10-23T12:21:13.518Z,56.30
2022-10-23T12:22:13.449Z,56.90
2022-10-23T12:23:13.429Z,56.40
2022-10-23T12:24:13.575Z,56.20
2022-10-23T12:25:13.452Z,55.80
2022-10-23T12:26:13.274Z,55.50
2022-10-23T12:27:13.068Z,55.10
2022-10-23T12:28:13.275Z,55.80
2022-10-23T12:29:13.205Z,55.30
2022-10-23T12:30:13.195Z,54.70
2022-10-23T12:31:13.488Z,55.70
2022-10-23T12:32:13.604Z,55.00
2022-10-23T12:33:13.470Z,53.90
2022-10-23T12:34:13.440Z,54.50
2022-10-23T12:35:13.412Z,53.30
2022-10-23T12:36:13.284Z,53.00
2022-10-23T12:37:13.422Z,52.40
2022-10-23T12:38:13.432Z,53.00
2022-10-23T12:39:13.360Z,52.30
2022-10-23T12:40:13.979Z,50.80
2022-10-23T12:41:12.972Z,51.80
2022-10-23T12:42:12.870Z,52.60
2022-10-23T12:43:13.917Z,53.30
2022-10-23T12:44:13.075Z,53.20
2022-10-23T12:45:13.033Z,55.10
2022-10-23T12:46:15.482Z,53.80
2022-10-23T12:47:13.705Z,53.10
2022-10-23T12:48:13.577Z,53.10
2022-10-23T12:49:13.962Z,54.10
2022-10-23T12:50:12.921Z,53.90
2022-10-23T12:51:12.769Z,53.80
2022-10-23T12:52:13.768Z,53.70
2022-10-23T12:53:13.754Z,53.70
2022-10-23T12:54:13.643Z,54.20
2022-10-23T12:55:13.720Z,53.60
2022-10-23T12:56:13.509Z,53.10
2022-10-23T12:57:16.130Z,52.80
2022-10-23T12:58:13.107Z,52.50
2022-10-23T12:59:13.108Z,53.20